Time;durP1;ratioP1;P1;durP2;ratioP2;P2;SDS_P1;SDS_P2;PMS_P1;PMS_P2;Temp;Humidity;BMP_temperature;BMP_pressure;BME280_temperature;BME280_humidity;BME280_pressure;Samples;Min_cycle;Max_cycle;Signal;HPM_P1;HPM_P2
2024/03/30 00:02:22;;;;;;;;;;;;;;;20.68;35.96;97923.26;67948;1276;1016456;-60
2024/03/30 00:05:27;;;;;;;;;;;;;;;20.58;36.08;97923.86;67965;1276;1017620;-64
2024/03/30 00:08:32;;;;;;;;;;;;;;;20.46;36.28;97922.95;67910;1276;1016376;-62
2024/03/30 00:11:36;;;;;;;;;;;;;;;20.44;36.38;97920.88;67933;1276;1016243;-64
2024/03/30 00:14:41;;;;;;;;;;;;;;;20.50;36.27;97920.53;67968;1276;1016421;-65
2024/03/30 00:17:46;;;;;;;;;;;;;;;20.57;36.21;97919.70;67897;1276;1017214;-64
2024/03/30 00:20:50;;;;;;;;;;;;;;;20.50;36.35;97921.49;67805;1276;1016415;-65
2024/03/30 00:23:55;;;;;;;;;;;;;;;20.39;36.35;97921.45;67980;1276;1016396;-64
2024/03/30 00:27:00;;;;;;;;;;;;;;;20.31;36.53;97919.56;67917;1276;1016486;-61
2024/03/30 00:30:05;;;;;;;;;;;;;;;20.32;36.62;97918.50;67951;1276;1017038;-64
2024/03/30 00:33:10;;;;;;;;;;;;;;;20.37;36.39;97912.68;67940;1276;1016497;-64
2024/03/30 00:36:13;;;;;;;;;;;;;;;20.21;36.83;97915.95;67961;1276;1018411;-64
2024/03/30 00:39:19;;;;;;;;;;;;;;;20.10;36.82;97917.02;67920;1276;1016384;-64
2024/03/30 00:42:23;;;;;;;;;;;;;;;20.05;36.84;97918.12;67966;1276;1016455;-64
2024/03/30 00:45:29;;;;;;;;;;;;;;;20.13;36.84;97914.11;67960;1276;1016259;-59
2024/03/30 00:48:34;;;;;;;;;;;;;;;20.27;36.75;97915.41;67904;1276;1017253;-59
2024/03/30 00:51:40;;;;;;;;;;;;;;;20.30;36.71;97913.58;67867;1276;1017809;-64
2024/03/30 00:54:44;;;;;;;;;;;;;;;20.10;37.02;97911.14;67970;1276;1016404;-64
2024/03/30 00:57:47;;;;;;;;;;;;;;;20.06;37.04;97906.30;67951;1276;1016467;-64
2024/03/30 01:00:52;;;;;;;;;;;;;;;19.96;37.47;97906.51;67950;1276;1019042;-64
2024/03/30 01:03:57;;;;;;;;;;;;;;;20.19;37.15;97908.38;67958;1276;1016413;-64
2024/03/30 01:07:03;;;;;;;;;;;;;;;20.37;37.02;97907.38;67960;1276;1016539;-65
2024/03/30 01:10:07;;;;;;;;;;;;;;;20.52;36.87;97897.52;67878;1276;1016484;-64
2024/03/30 01:13:12;;;;;;;;;;;;;;;20.36;37.18;97898.02;67945;1276;1016374;-64
2024/03/30 01:16:15;;;;;;;;;;;;;;;20.44;37.25;97897.23;67963;1276;1016375;-64
2024/03/30 01:19:19;;;;;;;;;;;;;;;20.54;37.07;97893.79;67966;1276;1016793;-64
2024/03/30 01:22:23;;;;;;;;;;;;;;;20.69;36.90;97885.54;67925;1276;1016333;-61
2024/03/30 01:25:28;;;;;;;;;;;;;;;20.73;36.99;97887.23;67949;1276;1016323;-65
2024/03/30 01:28:33;;;;;;;;;;;;;;;20.86;36.90;97884.96;67887;1276;1016498;-64
2024/03/30 01:31:38;;;;;;;;;;;;;;;20.93;36.84;97884.79;67948;1276;1016369;-64
2024/03/30 01:34:43;;;;;;;;;;;;;;;21.02;36.76;97885.42;67953;1276;1016962;-60
2024/03/30 01:37:49;;;;;;;;;;;;;;;21.01;36.82;97883.30;67944;1276;1016459;-64
2024/03/30 01:40:53;;;;;;;;;;;;;;;20.88;37.06;97883.84;67976;1276;1016434;-64
2024/03/30 01:43:58;;;;;;;;;;;;;;;20.97;36.96;97884.17;67989;1276;1016413;-64
2024/03/30 01:47:05;;;;;;;;;;;;;;;20.87;37.16;97880.36;67954;1276;1016475;-62
2024/03/30 01:50:09;;;;;;;;;;;;;;;20.74;37.32;97874.83;67929;1276;1016805;-64
2024/03/30 01:53:14;;;;;;;;;;;;;;;20.80;37.21;97873.23;67923;1276;1016459;-61
2024/03/30 01:56:19;;;;;;;;;;;;;;;20.94;36.94;97875.16;67815;1276;1018075;-64
2024/03/30 01:59:25;;;;;;;;;;;;;;;20.98;36.91;97877.97;67891;1276;1015976;-60
2024/03/30 02:02:30;;;;;;;;;;;;;;;20.98;36.82;97878.30;67909;1276;1016472;-64
2024/03/30 02:05:35;;;;;;;;;;;;;;;20.95;36.86;97885.66;67957;1276;1016438;-64
2024/03/30 02:08:41;;;;;;;;;;;;;;;20.89;36.96;97886.89;67926;1276;1016430;-64
2024/03/30 02:11:45;;;;;;;;;;;;;;;20.89;36.95;97886.20;67920;1276;1016320;-61
2024/03/30 02:14:51;;;;;;;;;;;;;;;20.81;37.03;97892.65;67977;1276;1016487;-64
2024/03/30 02:17:56;;;;;;;;;;;;;;;20.90;36.98;97896.02;67916;1276;1016607;-64
2024/03/30 02:21:03;;;;;;;;;;;;;;;20.99;36.79;97898.52;67986;1276;1016444;-60
2024/03/30 02:24:08;;;;;;;;;;;;;;;20.92;36.81;97895.50;67953;1276;1016511;-64
2024/03/30 02:27:12;;;;;;;;;;;;;;;20.82;37.03;97898.23;67994;1276;1017041;-64
2024/03/30 02:30:16;;;;;;;;;;;;;;;20.58;37.35;97899.14;67917;1276;1017777;-64
2024/03/30 02:33:21;;;;;;;;;;;;;;;20.64;37.26;97900.08;67937;1276;1015968;-64
2024/03/30 02:36:27;;;;;;;;;;;;;;;20.69;37.19;97901.11;67853;1276;1016632;-59
2024/03/30 02:39:33;;;;;;;;;;;;;;;20.60;37.29;97895.91;67976;1276;1016143;-65
2024/03/30 02:42:38;;;;;;;;;;;;;;;20.64;37.27;97891.25;67927;1276;1016441;-64
2024/03/30 02:45:43;;;;;;;;;;;;;;;20.54;37.57;97892.72;67957;1276;1016350;-64
2024/03/30 02:48:47;;;;;;;;;;;;;;;20.35;37.90;97898.11;67963;1276;1016495;-64
2024/03/30 02:51:51;;;;;;;;;;;;;;;20.29;37.96;97897.23;67978;1276;1018375;-64
2024/03/30 02:54:55;;;;;;;;;;;;;;;20.34;37.89;97891.14;67831;1276;1016194;-64
2024/03/30 02:58:01;;;;;;;;;;;;;;;20.13;38.42;97892.60;67934;1276;1016392;-64
2024/03/30 03:01:05;;;;;;;;;;;;;;;19.87;38.80;97894.07;68015;1276;1016519;-63
2024/03/30 03:04:09;;;;;;;;;;;;;;;20.12;38.46;97892.30;67940;1276;1016319;-64
2024/03/30 03:07:13;;;;;;;;;;;;;;;20.12;38.53;97893.89;67986;1276;1016370;-64
2024/03/30 03:10:19;;;;;;;;;;;;;;;20.18;38.43;97893.14;67951;1276;1016325;-64
2024/03/30 03:13:25;;;;;;;;;;;;;;;20.15;38.54;97893.91;68003;1276;1016315;-61
2024/03/30 03:16:30;;;;;;;;;;;;;;;20.18;38.52;97894.78;67889;1276;1016809;-64
2024/03/30 03:19:35;;;;;;;;;;;;;;;20.17;38.50;97893.31;67917;1276;1016386;-61
2024/03/30 03:22:40;;;;;;;;;;;;;;;20.11;38.60;97895.63;68010;1276;1016448;-64
2024/03/30 03:25:47;;;;;;;;;;;;;;;20.00;38.82;97895.60;67955;1276;1019103;-64
2024/03/30 03:28:54;;;;;;;;;;;;;;;19.92;39.11;97895.89;67842;1276;1016510;-64
2024/03/30 03:31:59;;;;;;;;;;;;;;;20.00;38.97;97899.36;67948;1276;1016679;-64
2024/03/30 03:35:05;;;;;;;;;;;;;;;20.03;38.80;97901.06;67953;1276;1016141;-64
2024/03/30 03:38:10;;;;;;;;;;;;;;;19.91;39.04;97907.05;67812;1276;1015825;-64
2024/03/30 03:41:15;;;;;;;;;;;;;;;20.09;38.84;97903.82;67983;1276;1016148;-60
2024/03/30 03:44:20;;;;;;;;;;;;;;;20.02;38.98;97900.88;67962;1276;1016269;-62
2024/03/30 03:47:25;;;;;;;;;;;;;;;20.05;39.11;97901.82;67881;1276;1016268;-59
2024/03/30 03:50:32;;;;;;;;;;;;;;;20.11;39.04;97903.24;67948;1276;1016607;-63
2024/03/30 03:53:36;;;;;;;;;;;;;;;20.05;39.05;97904.34;67937;1276;1016522;-64
2024/03/30 03:56:39;;;;;;;;;;;;;;;19.95;39.21;97902.59;67882;1276;1016383;-64
2024/03/30 03:59:44;;;;;;;;;;;;;;;19.79;39.52;97899.02;67888;1276;1016517;-62
2024/03/30 04:02:49;;;;;;;;;;;;;;;19.47;39.71;97896.38;67981;1276;1018691;-64
2024/03/30 04:05:53;;;;;;;;;;;;;;;19.60;39.37;97893.69;67962;1276;1016432;-64
2024/03/30 04:08:58;;;;;;;;;;;;;;;19.71;39.35;97893.30;67960;1276;1018544;-64
2024/03/30 04:12:02;;;;;;;;;;;;;;;19.74;39.39;97894.83;67943;1276;1016020;-64
2024/03/30 04:15:06;;;;;;;;;;;;;;;19.65;39.43;97895.60;67955;1276;1016472;-63
2024/03/30 04:18:09;;;;;;;;;;;;;;;19.64;39.44;97898.23;67989;1276;1016127;-64
2024/03/30 04:21:15;;;;;;;;;;;;;;;19.86;39.30;97899.00;67950;1276;1016034;-60
2024/03/30 04:24:20;;;;;;;;;;;;;;;19.54;39.90;97899.02;67974;1276;1016734;-64
2024/03/30 04:27:25;;;;;;;;;;;;;;;19.56;39.79;97902.86;67975;1276;1016075;-60
2024/03/30 04:30:29;;;;;;;;;;;;;;;19.62;39.82;97908.74;67965;1276;1020204;-64
2024/03/30 04:33:33;;;;;;;;;;;;;;;19.81;39.66;97912.63;67983;1276;1016447;-64
2024/03/30 04:36:38;;;;;;;;;;;;;;;19.90;39.36;97905.85;67939;1276;1016413;-64
2024/03/30 04:39:41;;;;;;;;;;;;;;;19.72;39.77;97913.46;67953;1276;1016464;-64
2024/03/30 04:42:46;;;;;;;;;;;;;;;19.10;41.13;97916.48;67870;1276;1016654;-64
2024/03/30 04:45:51;;;;;;;;;;;;;;;19.14;41.19;97916.70;67877;1276;1016423;-64
2024/03/30 04:48:56;;;;;;;;;;;;;;;19.20;41.26;97920.30;67989;1276;1016411;-61
2024/03/30 04:52:02;;;;;;;;;;;;;;;19.78;40.43;97927.04;67969;1276;1016368;-64
2024/03/30 04:55:07;;;;;;;;;;;;;;;19.42;41.41;97932.58;67886;1276;1016341;-64
2024/03/30 04:58:12;;;;;;;;;;;;;;;19.47;41.53;97939.27;67863;1276;1016259;-64
2024/03/30 05:01:16;;;;;;;;;;;;;;;19.46;41.73;97944.23;67904;1276;1016441;-64
2024/03/30 05:04:20;;;;;;;;;;;;;;;19.58;41.69;97948.06;67952;1276;1016486;-64
2024/03/30 05:07:25;;;;;;;;;;;;;;;20.41;40.46;97946.25;67956;1276;1016552;-64
2024/03/30 05:10:30;;;;;;;;;;;;;;;20.65;40.33;97951.17;67927;1275;1015831;-63
2024/03/30 05:13:34;;;;;;;;;;;;;;;20.71;40.42;97952.37;67989;1276;1016380;-64
2024/03/30 05:16:39;;;;;;;;;;;;;;;20.34;41.24;97950.84;67888;1276;1016399;-64
2024/03/30 05:23:04;;;;;;;;;;;;;;;20.41;41.56;97945.92;67899;1276;1016481;-63
2024/03/30 05:26:09;;;;;;;;;;;;;;;20.41;41.52;97938.95;67914;1276;1017086;-64
2024/03/30 05:29:14;;;;;;;;;;;;;;;20.45;41.49;97935.17;67915;1276;1016364;-65
2024/03/30 05:32:20;;;;;;;;;;;;;;;20.79;41.12;97928.55;67911;1276;1016400;-64
2024/03/30 05:35:25;;;;;;;;;;;;;;;21.02;41.01;97928.04;67900;1276;1016046;-63
2024/03/30 05:38:31;;;;;;;;;;;;;;;21.24;40.63;97928.07;67984;1276;1016176;-64
2024/03/30 05:41:35;;;;;;;;;;;;;;;21.41;40.39;97924.58;67942;1276;1016651;-62
2024/03/30 05:44:39;;;;;;;;;;;;;;;21.55;40.21;97925.14;67959;1276;1016391;-61
2024/03/30 05:47:44;;;;;;;;;;;;;;;21.74;39.96;97923.56;67924;1276;1016587;-65
2024/03/30 05:50:51;;;;;;;;;;;;;;;21.95;39.75;97925.71;67956;1276;1016760;-65
2024/03/30 05:53:56;;;;;;;;;;;;;;;21.94;40.69;97927.63;67951;1276;1016166;-60
2024/03/30 05:57:03;;;;;;;;;;;;;;;21.85;40.48;97927.40;67949;1276;1018012;-61
2024/03/30 06:00:09;;;;;;;;;;;;;;;22.02;39.95;97927.95;67936;1276;1017175;-61
2024/03/30 06:03:14;;;;;;;;;;;;;;;21.99;39.96;97920.13;65344;1276;6481204;-65
2024/03/30 06:06:17;;;;;;;;;;;;;;;21.87;40.13;97915.92;67974;1276;1016420;-60
2024/03/30 06:09:22;;;;;;;;;;;;;;;21.61;40.72;97917.23;67898;1276;1016397;-65
2024/03/30 06:12:26;;;;;;;;;;;;;;;21.89;40.60;97917.40;67966;1276;1016378;-61
2024/03/30 06:15:31;;;;;;;;;;;;;;;22.31;40.27;97919.93;67899;1276;1016209;-64
2024/03/30 06:18:36;;;;;;;;;;;;;;;22.69;40.18;97919.83;67858;1276;1016608;-60
2024/03/30 06:21:40;;;;;;;;;;;;;;;23.09;40.01;97916.59;67966;1276;1016122;-65
2024/03/30 06:24:45;;;;;;;;;;;;;;;23.38;40.28;97914.79;67975;1276;1016569;-61
2024/03/30 06:27:51;;;;;;;;;;;;;;;24.12;39.43;97923.05;67908;1276;1016387;-64
2024/03/30 06:30:57;;;;;;;;;;;;;;;24.65;39.27;97924.89;67936;1276;1016206;-62
2024/03/30 06:34:03;;;;;;;;;;;;;;;25.02;38.85;97928.55;67913;1276;1016633;-64
2024/03/30 06:37:09;;;;;;;;;;;;;;;25.45;38.17;97921.67;67963;1276;1016443;-62
2024/03/30 06:43:46;;;;;;;;;;;;;;;26.35;36.96;97920.63;67921;1276;1016340;-62
2024/03/30 06:46:51;;;;;;;;;;;;;;;26.73;36.13;97924.11;67836;1276;1016421;-64
2024/03/30 06:49:54;;;;;;;;;;;;;;;26.24;36.87;97925.52;67924;1276;1016466;-65
2024/03/30 06:52:59;;;;;;;;;;;;;;;26.26;36.43;97925.80;67960;1276;1016438;-62
2024/03/30 06:56:05;;;;;;;;;;;;;;;26.30;36.31;97931.27;67968;1276;1016394;-63
2024/03/30 06:59:09;;;;;;;;;;;;;;;26.55;36.01;97934.61;67946;1276;1017415;-61
2024/03/30 07:02:14;;;;;;;;;;;;;;;26.26;36.39;97934.10;67918;1276;1017982;-65
2024/03/30 07:05:20;;;;;;;;;;;;;;;26.59;36.23;97934.22;67923;1276;1016384;-62
2024/03/30 07:08:26;;;;;;;;;;;;;;;26.93;36.12;97937.30;67951;1276;1016542;-61
2024/03/30 07:11:29;;;;;;;;;;;;;;;27.12;35.81;97946.24;67946;1276;1016278;-65
2024/03/30 07:14:34;;;;;;;;;;;;;;;27.14;35.48;97945.19;67945;1276;1016825;-65
2024/03/30 07:17:41;;;;;;;;;;;;;;;27.28;35.55;97941.40;67980;1276;1016523;-65
2024/03/30 07:20:46;;;;;;;;;;;;;;;27.38;35.59;97945.99;67952;1276;1016502;-65
2024/03/30 07:23:52;;;;;;;;;;;;;;;27.49;35.54;97949.45;67923;1276;1016481;-65
2024/03/30 07:26:57;;;;;;;;;;;;;;;27.72;35.45;97953.41;67957;1276;1016376;-61
2024/03/30 07:30:00;;;;;;;;;;;;;;;27.75;34.90;97959.56;67971;1276;1016325;-63
2024/03/30 07:33:05;;;;;;;;;;;;;;;28.09;34.70;97963.40;67932;1276;1016299;-63
2024/03/30 07:36:09;;;;;;;;;;;;;;;27.99;34.66;97965.79;67938;1276;1016989;-61
2024/03/30 07:39:13;;;;;;;;;;;;;;;27.92;35.19;97965.65;67919;1276;1016544;-63
2024/03/30 07:42:18;;;;;;;;;;;;;;;28.12;34.60;97969.07;67946;1276;1016210;-64
2024/03/30 07:45:23;;;;;;;;;;;;;;;28.10;34.61;97965.13;67961;1276;1016096;-64
2024/03/30 07:48:28;;;;;;;;;;;;;;;28.39;34.27;97962.22;67912;1276;1016232;-64
2024/03/30 07:51:34;;;;;;;;;;;;;;;28.76;34.81;97959.73;67941;1276;1016251;-62
2024/03/30 07:54:36;;;;;;;;;;;;;;;29.05;33.35;97959.88;67952;1276;1016526;-62
2024/03/30 07:57:41;;;;;;;;;;;;;;;29.16;33.67;97961.59;67913;1276;1016505;-61
2024/03/30 08:00:46;;;;;;;;;;;;;;;29.39;33.27;97964.13;67904;1276;1016346;-63
2024/03/30 08:03:52;;;;;;;;;;;;;;;29.59;33.05;97959.16;67925;1276;1015880;-65
2024/03/30 08:06:57;;;;;;;;;;;;;;;29.49;32.80;97961.77;67897;1276;1016399;-62
2024/03/30 08:10:02;;;;;;;;;;;;;;;29.44;32.73;97960.36;67911;1276;1016410;-64
2024/03/30 08:13:07;;;;;;;;;;;;;;;29.69;32.54;97959.47;67937;1276;1016419;-63
2024/03/30 08:16:11;;;;;;;;;;;;;;;29.91;32.55;97954.95;67976;1276;1016237;-65
2024/03/30 08:19:17;;;;;;;;;;;;;;;30.39;32.63;97951.38;67919;1276;1016466;-62
2024/03/30 08:22:21;;;;;;;;;;;;;;;30.74;31.74;97951.23;67984;1276;1015926;-61
2024/03/30 08:25:26;;;;;;;;;;;;;;;30.96;31.11;97953.10;67903;1276;1016481;-64
2024/03/30 08:28:31;;;;;;;;;;;;;;;31.01;30.36;97952.21;67824;1276;1016023;-62
2024/03/30 08:31:35;;;;;;;;;;;;;;;30.76;30.61;97947.38;67919;1276;1016171;-65
2024/03/30 08:34:41;;;;;;;;;;;;;;;30.51;31.07;97944.08;67958;1276;1016455;-64
2024/03/30 08:37:47;;;;;;;;;;;;;;;30.55;30.65;97940.42;67946;1276;1016206;-65
2024/03/30 08:40:52;;;;;;;;;;;;;;;30.82;31.00;97943.29;67934;1275;1018124;-65
2024/03/30 08:43:57;;;;;;;;;;;;;;;31.37;29.85;97946.45;68037;1275;1016269;-63
2024/03/30 08:47:02;;;;;;;;;;;;;;;31.40;29.99;97947.89;68045;1275;1016413;-65
2024/03/30 08:50:07;;;;;;;;;;;;;;;31.28;29.64;97950.83;68049;1275;1016737;-62
2024/03/30 08:53:12;;;;;;;;;;;;;;;31.30;29.85;97952.97;68014;1275;1016387;-64
2024/03/30 08:56:17;;;;;;;;;;;;;;;31.44;29.33;97953.74;68042;1275;1016283;-64
2024/03/30 08:59:21;;;;;;;;;;;;;;;31.52;29.75;97954.95;68023;1275;1016452;-65
2024/03/30 09:02:31;;;;;;;;;;;;;;;31.80;29.54;97949.20;68061;1275;1016742;-63
2024/03/30 09:05:36;;;;;;;;;;;;;;;31.83;29.35;97943.05;67950;1275;1016392;-63
2024/03/30 09:08:41;;;;;;;;;;;;;;;32.37;28.73;97935.50;67983;1275;1016279;-65
2024/03/30 09:11:47;;;;;;;;;;;;;;;32.55;28.34;97933.00;68049;1275;1016414;-62
2024/03/30 09:14:51;;;;;;;;;;;;;;;32.48;28.28;97933.33;68014;1275;1018374;-63
2024/03/30 09:17:56;;;;;;;;;;;;;;;32.31;28.69;97930.45;68009;1275;1016213;-63
2024/03/30 09:21:04;;;;;;;;;;;;;;;32.45;28.71;97926.84;68017;1275;1015902;-65
2024/03/30 09:24:09;;;;;;;;;;;;;;;32.47;28.25;97923.91;68062;1275;1016356;-64
2024/03/30 09:27:14;;;;;;;;;;;;;;;32.44;27.96;97920.86;68037;1275;1016385;-65
2024/03/30 09:30:20;;;;;;;;;;;;;;;32.47;28.42;97921.98;68026;1275;1016377;-65
2024/03/30 09:33:25;;;;;;;;;;;;;;;32.79;28.14;97926.38;68038;1275;1016484;-66
2024/03/30 09:36:29;;;;;;;;;;;;;;;33.09;28.29;97930.01;68054;1275;1016554;-65
2024/03/30 09:39:35;;;;;;;;;;;;;;;33.45;27.89;97932.58;68014;1275;1016177;-65
2024/03/30 09:42:40;;;;;;;;;;;;;;;33.46;27.40;97932.42;67881;1275;1016640;-64
2024/03/30 09:45:45;;;;;;;;;;;;;;;33.62;27.16;97928.67;67924;1275;1018845;-64
2024/03/30 09:48:49;;;;;;;;;;;;;;;33.79;26.97;97921.70;67916;1275;1016458;-63
2024/03/30 09:51:55;;;;;;;;;;;;;;;33.99;26.84;97915.60;67921;1274;1016465;-62
2024/03/30 09:55:00;;;;;;;;;;;;;;;34.12;26.62;97917.76;67935;1275;1017295;-64
2024/03/30 09:58:05;;;;;;;;;;;;;;;34.30;26.60;97910.52;67993;1275;1016875;-63
2024/03/30 10:01:10;;;;;;;;;;;;;;;34.28;26.57;97909.25;68046;1275;1016442;-65
2024/03/30 10:04:17;;;;;;;;;;;;;;;34.22;26.38;97902.65;68031;1275;1018368;-65
2024/03/30 10:07:22;;;;;;;;;;;;;;;34.13;26.28;97896.27;68000;1275;1019260;-65
2024/03/30 10:10:27;;;;;;;;;;;;;;;34.21;26.35;97886.98;67973;1275;1016337;-64
2024/03/30 10:13:31;;;;;;;;;;;;;;;34.49;26.28;97885.54;68038;1275;1016693;-65
2024/03/30 10:16:36;;;;;;;;;;;;;;;34.57;25.91;97888.75;68019;1275;1016139;-65
2024/03/30 10:19:41;;;;;;;;;;;;;;;34.59;25.31;97882.50;67960;1275;1016075;-65
2024/03/30 10:22:46;;;;;;;;;;;;;;;34.62;25.40;97882.77;68060;1275;1016935;-65
2024/03/30 10:25:54;;;;;;;;;;;;;;;34.73;25.45;97883.80;68045;1275;1016810;-65
2024/03/30 10:28:58;;;;;;;;;;;;;;;34.75;24.77;97886.79;68037;1275;1016430;-65
2024/03/30 10:32:00;;;;;;;;;;;;;;;34.54;24.88;97887.17;67998;1275;1017882;-65
2024/03/30 10:35:07;;;;;;;;;;;;;;;34.67;25.03;97892.88;68017;1275;1016285;-66
2024/03/30 10:38:11;;;;;;;;;;;;;;;34.67;25.01;97890.98;68009;1275;1016554;-65
2024/03/30 10:41:15;;;;;;;;;;;;;;;34.82;25.02;97898.17;68011;1275;1016169;-65
2024/03/30 10:44:19;;;;;;;;;;;;;;;35.02;25.04;97895.15;68062;1275;1016288;-65
2024/03/30 10:47:24;;;;;;;;;;;;;;;34.95;24.83;97897.84;68058;1275;1016132;-65
2024/03/30 10:50:28;;;;;;;;;;;;;;;34.57;24.88;97891.86;68000;1275;1016698;-65
2024/03/30 10:53:31;;;;;;;;;;;;;;;34.57;24.85;97895.30;67939;1275;1016448;-65
2024/03/30 10:56:35;;;;;;;;;;;;;;;34.49;24.71;97885.13;67981;1275;1016062;-65
2024/03/30 10:59:45;;;;;;;;;;;;;;;34.59;24.82;97886.63;68054;1275;1016876;-65
2024/03/30 11:02:49;;;;;;;;;;;;;;;34.45;24.74;97882.07;67983;1275;1016334;-65
2024/03/30 11:05:54;;;;;;;;;;;;;;;34.31;24.72;97886.82;67952;1275;1016288;-64
2024/03/30 11:08:59;;;;;;;;;;;;;;;34.24;24.76;97888.67;67979;1275;1016508;-65
2024/03/30 11:12:03;;;;;;;;;;;;;;;34.22;25.00;97882.02;68005;1275;1016986;-63
2024/03/30 11:15:06;;;;;;;;;;;;;;;34.17;24.92;97874.41;67982;1275;1016318;-65
2024/03/30 11:18:12;;;;;;;;;;;;;;;34.26;25.18;97870.17;67953;1275;1016139;-65
2024/03/30 11:21:17;;;;;;;;;;;;;;;34.69;24.93;97870.39;68003;1275;1016913;-65
2024/03/30 11:24:21;;;;;;;;;;;;;;;34.82;24.76;97862.44;67946;1275;1015986;-64
2024/03/30 11:27:26;;;;;;;;;;;;;;;34.61;24.49;97856.91;68003;1275;1016431;-66
2024/03/30 11:30:29;;;;;;;;;;;;;;;34.31;24.75;97852.23;67973;1275;1016426;-65
2024/03/30 11:33:35;;;;;;;;;;;;;;;34.28;24.80;97849.40;68012;1275;1016276;-65
2024/03/30 11:36:39;;;;;;;;;;;;;;;34.48;24.53;97854.02;67977;1275;1016440;-62
2024/03/30 11:39:43;;;;;;;;;;;;;;;34.34;24.50;97853.48;67977;1275;1016617;-65
2024/03/30 11:42:47;;;;;;;;;;;;;;;34.61;25.08;97859.42;67989;1275;1016421;-64
2024/03/30 11:45:51;;;;;;;;;;;;;;;34.89;24.71;97853.05;67965;1275;1016473;-62
2024/03/30 11:48:56;;;;;;;;;;;;;;;35.44;23.91;97850.25;67984;1275;1016175;-65
2024/03/30 11:52:01;;;;;;;;;;;;;;;35.62;23.95;97852.13;68042;1275;1016184;-65
2024/03/30 11:55:05;;;;;;;;;;;;;;;35.53;23.38;97846.06;67989;1275;1016290;-60
2024/03/30 11:58:11;;;;;;;;;;;;;;;35.56;23.61;97844.52;68028;1275;1016023;-62
2024/03/30 12:01:17;;;;;;;;;;;;;;;35.86;23.70;97848.23;67988;1275;1016445;-63
2024/03/30 12:04:21;;;;;;;;;;;;;;;36.20;23.11;97843.48;68009;1275;1016411;-62
2024/03/30 12:07:27;;;;;;;;;;;;;;;36.32;23.00;97840.71;67991;1275;1016411;-63
2024/03/30 12:10:32;;;;;;;;;;;;;;;36.40;22.91;97842.67;67921;1275;1016615;-60
2024/03/30 12:13:36;;;;;;;;;;;;;;;36.45;23.03;97842.15;68019;1275;1016402;-63
2024/03/30 12:16:42;;;;;;;;;;;;;;;36.65;22.99;97846.16;67981;1275;1016593;-62
2024/03/30 12:19:47;;;;;;;;;;;;;;;36.44;22.49;97856.17;68001;1275;1018343;-63
2024/03/30 12:22:52;;;;;;;;;;;;;;;36.05;22.38;97852.92;68026;1275;1016402;-62
2024/03/30 12:25:59;;;;;;;;;;;;;;;35.70;22.80;97850.48;68019;1275;1016423;-62
2024/03/30 12:29:03;;;;;;;;;;;;;;;35.76;22.80;97860.34;68042;1275;1016373;-62
2024/03/30 12:32:08;;;;;;;;;;;;;;;35.89;22.14;97864.64;67990;1275;1016303;-61
2024/03/30 12:35:12;;;;;;;;;;;;;;;36.01;22.18;97861.89;68026;1275;1016389;-60
2024/03/30 12:38:18;;;;;;;;;;;;;;;36.11;22.36;97859.73;67948;1275;1016205;-60
2024/03/30 12:41:25;;;;;;;;;;;;;;;36.12;22.01;97852.52;68008;1275;1016647;-63
2024/03/30 12:44:29;;;;;;;;;;;;;;;36.14;22.03;97843.63;68070;1275;1016314;-60
2024/03/30 12:47:34;;;;;;;;;;;;;;;36.38;21.88;97838.33;67985;1275;1016492;-63
2024/03/30 12:50:39;;;;;;;;;;;;;;;36.56;21.68;97833.73;68000;1275;1016180;-60
2024/03/30 12:53:44;;;;;;;;;;;;;;;36.41;21.64;97834.46;67990;1275;1016817;-60
2024/03/30 12:56:48;;;;;;;;;;;;;;;36.52;21.67;97835.96;67984;1275;1016366;-60
2024/03/30 12:59:52;;;;;;;;;;;;;;;36.76;21.64;97833.61;67957;1275;1016369;-60
2024/03/30 13:02:55;;;;;;;;;;;;;;;36.96;21.13;97827.73;67861;1275;1016488;-60
2024/03/30 13:05:58;;;;;;;;;;;;;;;36.57;20.50;97818.33;67971;1275;1016320;-62
2024/03/30 13:09:00;;;;;;;;;;;;;;;36.27;20.64;97809.46;68015;1275;1015999;-63
2024/03/30 13:12:03;;;;;;;;;;;;;;;36.41;20.25;97802.70;68059;1275;1018542;-61
2024/03/30 13:15:05;;;;;;;;;;;;;;;36.35;20.51;97797.78;67983;1275;1016525;-62
2024/03/30 13:18:08;;;;;;;;;;;;;;;36.38;20.29;97791.93;67993;1275;1018108;-60
2024/03/30 13:21:11;;;;;;;;;;;;;;;36.37;20.09;97782.05;68012;1275;1016060;-62
2024/03/30 13:24:13;;;;;;;;;;;;;;;36.39;20.28;97777.87;67984;1275;1016058;-63
2024/03/30 13:27:16;;;;;;;;;;;;;;;36.46;20.16;97770.16;68024;1275;1016690;-63
2024/03/30 13:30:19;;;;;;;;;;;;;;;36.63;19.94;97774.64;68044;1275;1016498;-63
2024/03/30 13:33:21;;;;;;;;;;;;;;;36.52;19.90;97772.12;67996;1275;1016229;-62
2024/03/30 13:36:23;;;;;;;;;;;;;;;36.51;20.03;97772.61;67969;1275;1016246;-63
2024/03/30 13:39:26;;;;;;;;;;;;;;;36.38;20.17;97776.09;67971;1275;1016316;-63
2024/03/30 13:42:28;;;;;;;;;;;;;;;36.21;20.09;97770.44;68021;1275;1016472;-60
2024/03/30 13:45:32;;;;;;;;;;;;;;;36.12;20.50;97770.52;68053;1275;1016379;-62
2024/03/30 13:48:34;;;;;;;;;;;;;;;36.25;20.67;97764.34;67997;1276;1016874;-60
2024/03/30 13:51:36;;;;;;;;;;;;;;;36.43;20.75;97760.97;68031;1275;1016220;-60
2024/03/30 13:54:39;;;;;;;;;;;;;;;36.66;20.51;97758.00;68049;1275;1016478;-61
2024/03/30 13:57:41;;;;;;;;;;;;;;;36.78;20.61;97753.67;68061;1276;1016077;-63
2024/03/30 14:00:44;;;;;;;;;;;;;;;36.65;20.17;97749.11;67987;1275;1016555;-63
2024/03/30 14:03:46;;;;;;;;;;;;;;;36.35;20.41;97754.05;67971;1275;1018004;-63
2024/03/30 14:06:48;;;;;;;;;;;;;;;36.32;19.94;97753.10;68050;1275;1016772;-61
2024/03/30 14:09:50;;;;;;;;;;;;;;;36.28;18.44;97749.36;68010;1275;1016429;-62
2024/03/30 14:12:53;;;;;;;;;;;;;;;35.98;17.13;97745.91;68026;1275;1016402;-63
2024/03/30 14:15:55;;;;;;;;;;;;;;;35.92;16.52;97739.96;67980;1275;1016407;-62
2024/03/30 14:18:57;;;;;;;;;;;;;;;35.78;17.24;97738.38;67969;1275;1016015;-63
2024/03/30 14:22:00;;;;;;;;;;;;;;;35.72;16.70;97737.05;67984;1275;1016287;-62
2024/03/30 14:25:02;;;;;;;;;;;;;;;35.79;17.07;97736.95;67991;1275;1018326;-63
2024/03/30 14:28:04;;;;;;;;;;;;;;;35.80;17.02;97733.83;68023;1275;1016495;-61
2024/03/30 14:31:07;;;;;;;;;;;;;;;35.86;17.08;97733.84;68026;1275;1016484;-62
2024/03/30 14:34:09;;;;;;;;;;;;;;;35.77;16.63;97740.49;68049;1275;1016195;-62
2024/03/30 14:37:12;;;;;;;;;;;;;;;35.51;16.49;97736.27;68009;1275;1017201;-63
2024/03/30 14:40:15;;;;;;;;;;;;;;;35.26;16.16;97734.43;68044;1275;1016496;-63
2024/03/30 14:43:17;;;;;;;;;;;;;;;34.94;16.69;97741.02;68000;1275;1016526;-63
2024/03/30 14:46:19;;;;;;;;;;;;;;;35.03;17.07;97743.75;67996;1275;1016446;-63
2024/03/30 14:49:22;;;;;;;;;;;;;;;34.94;17.14;97735.23;67986;1275;1016472;-63
2024/03/30 14:52:24;;;;;;;;;;;;;;;35.25;16.69;97733.35;67979;1275;1016192;-63
2024/03/30 14:55:26;;;;;;;;;;;;;;;35.08;16.72;97739.64;68048;1275;1016845;-63
2024/03/30 14:58:28;;;;;;;;;;;;;;;34.91;16.56;97737.10;68040;1275;1016115;-61
2024/03/30 15:01:31;;;;;;;;;;;;;;;34.90;16.76;97736.11;67932;1275;1016073;-61
2024/03/30 15:04:33;;;;;;;;;;;;;;;34.99;16.56;97734.52;68017;1275;1018704;-62
2024/03/30 15:07:35;;;;;;;;;;;;;;;34.98;16.08;97729.33;67980;1275;1015828;-63
2024/03/30 15:10:38;;;;;;;;;;;;;;;35.14;16.64;97731.11;67980;1275;1016784;-62
2024/03/30 15:13:40;;;;;;;;;;;;;;;35.28;16.89;97738.84;68015;1275;1016217;-62
2024/03/30 15:16:43;;;;;;;;;;;;;;;35.52;16.70;97738.33;68001;1275;1016370;-63
2024/03/30 15:19:45;;;;;;;;;;;;;;;35.25;16.67;97742.89;67995;1275;1017127;-60
2024/03/30 15:22:48;;;;;;;;;;;;;;;35.21;16.97;97747.10;67941;1275;1016760;-63
2024/03/30 15:25:50;;;;;;;;;;;;;;;35.09;16.99;97743.73;67947;1275;1016350;-60
2024/03/30 15:28:52;;;;;;;;;;;;;;;35.14;17.01;97744.73;68019;1275;1016140;-63
2024/03/30 15:35:15;;;;;;;;;;;;;;;36.15;16.86;97739.64;68058;1275;1016337;-65
2024/03/30 15:38:17;;;;;;;;;;;;;;;36.93;16.34;97740.11;68044;1275;1016377;-65
2024/03/30 15:41:20;;;;;;;;;;;;;;;37.05;16.49;97735.90;68029;1275;1016668;-65
2024/03/30 15:44:22;;;;;;;;;;;;;;;37.23;16.35;97735.79;67993;1275;1016955;-64
2024/03/30 15:47:24;;;;;;;;;;;;;;;37.60;16.33;97735.23;67981;1275;1016475;-65